Time;durP1;ratioP1;P1;durP2;ratioP2;P2;SDS_P1;SDS_P2;PMS_P1;PMS_P2;Temp;Humidity;BMP_temperature;BMP_pressure;BME280_temperature;BME280_humidity;BME280_pressure;Samples;Min_cycle;Max_cycle;Signal;HPM_P1;HPM_P2
2022/07/11 00:02:20;;;;;;;0.40;0.20;;;;;;;26.78;41.82;100756.13;4915039;29;20035;-69
2022/07/11 00:04:46;;;;;;;0.85;0.20;;;;;;;26.78;41.90;100764.16;4914634;29;20325;-70
2022/07/11 00:07:12;;;;;;;0.40;0.17;;;;;;;26.79;41.86;100764.97;4913692;29;20035;-69
2022/07/11 00:09:38;;;;;;;0.40;0.10;;;;;;;26.80;41.85;100768.44;4914967;29;20400;-69
2022/07/11 00:12:04;;;;;;;0.82;0.20;;;;;;;26.80;41.64;100757.75;4914538;29;20127;-69
2022/07/11 00:14:29;;;;;;;1.15;0.20;;;;;;;26.82;41.93;100761.00;4915185;29;20481;-69
2022/07/11 00:16:55;;;;;;;0.30;0.10;;;;;;;26.83;41.56;100759.94;4914762;29;20031;-69
2022/07/11 00:19:22;;;;;;;0.40;0.20;;;;;;;26.84;41.71;100757.03;4914689;29;20028;-69
2022/07/11 00:21:48;;;;;;;0.40;0.20;;;;;;;26.86;41.49;100759.44;4914969;29;20493;-69
2022/07/11 00:24:14;;;;;;;0.50;0.20;;;;;;;26.87;41.63;100753.84;4914879;29;20058;-69
2022/07/11 00:26:39;;;;;;;0.30;0.20;;;;;;;26.86;41.61;100756.78;4914644;29;20476;-69
2022/07/11 00:29:05;;;;;;;0.52;0.10;;;;;;;26.87;41.73;100758.41;4914627;29;20036;-70
2022/07/11 00:31:31;;;;;;;0.75;0.20;;;;;;;26.86;41.33;100760.25;4932608;29;20035;-70
2022/07/11 00:33:57;;;;;;;0.30;0.10;;;;;;;26.86;41.36;100757.59;4933507;29;20087;-69
2022/07/11 00:36:23;;;;;;;0.50;0.20;;;;;;;26.86;41.30;100751.44;4926168;29;20047;-69
2022/07/11 00:38:49;;;;;;;0.28;0.20;;;;;;;26.84;41.48;100750.88;4916598;29;20119;-69
2022/07/11 00:41:14;;;;;;;0.63;0.20;;;;;;;26.83;41.61;100751.91;4914595;29;20067;-70
2022/07/11 00:43:40;;;;;;;0.57;0.30;;;;;;;26.83;41.40;100751.91;4914581;29;20397;-70
2022/07/11 00:46:08;;;;;;;0.30;0.20;;;;;;;26.81;41.45;100749.50;4914665;29;20032;-70
2022/07/11 00:48:38;;;;;;;0.35;0.17;;;;;;;26.80;41.46;100752.41;4895225;29;20052;-69
2022/07/11 00:51:04;;;;;;;0.50;0.13;;;;;;;26.80;41.50;100747.06;4895583;29;20369;-70
2022/07/11 00:53:31;;;;;;;0.60;0.10;;;;;;;26.80;41.33;100752.41;4895284;29;20116;-69
2022/07/11 00:55:59;;;;;;;0.40;0.20;;;;;;;26.79;41.33;100764.97;4905782;29;20178;-70
2022/07/11 00:58:24;;;;;;;0.43;0.15;;;;;;;26.78;41.24;100758.00;4914062;29;20028;-70
2022/07/11 01:00:50;;;;;;;1.17;0.20;;;;;;;26.79;41.23;100756.94;4914188;29;20123;-70
2022/07/11 01:03:16;;;;;;;0.40;0.20;;;;;;;26.78;41.23;100758.81;4915233;29;20044;-70
2022/07/11 01:05:42;;;;;;;0.70;0.20;;;;;;;26.77;41.35;100765.19;4933113;29;20038;-70
2022/07/11 01:08:08;;;;;;;0.80;0.30;;;;;;;26.76;41.24;100771.59;4933084;29;20056;-69
2022/07/11 01:10:35;;;;;;;0.75;0.20;;;;;;;26.77;41.15;100767.88;4932732;29;20035;-70
2022/07/11 01:13:00;;;;;;;0.30;0.10;;;;;;;26.77;41.24;100775.09;4932905;29;20111;-70
2022/07/11 01:15:26;;;;;;;1.05;0.10;;;;;;;26.78;41.03;100771.34;4932701;29;20156;-70
2022/07/11 01:17:52;;;;;;;0.73;0.20;;;;;;;26.80;41.05;100768.44;4932773;29;20032;-70
2022/07/11 01:20:18;;;;;;;0.30;0.10;;;;;;;26.82;41.03;100771.69;4931843;29;20075;-70
2022/07/11 01:22:48;;;;;;;1.13;0.20;;;;;;;26.83;41.29;100766.09;4932879;29;20027;-70
2022/07/11 01:25:30;;;;;;;1.65;0.20;;;;;;;26.84;40.99;100769.56;4932701;29;20032;-70
2022/07/11 01:28:04;;;;;;;0.20;0.10;;;;;;;26.83;41.19;100773.31;4932694;29;20480;-71
2022/07/11 01:30:33;;;;;;;0.63;0.15;;;;;;;26.85;41.11;100777.34;4933398;29;20063;-70
2022/07/11 01:32:59;;;;;;;0.28;0.10;;;;;;;26.84;41.16;100780.28;4918234;29;20076;-71
2022/07/11 01:35:26;;;;;;;0.28;0.10;;;;;;;26.85;40.90;100773.88;4914307;29;20036;-70
2022/07/11 01:37:51;;;;;;;0.50;0.20;;;;;;;26.84;41.36;100774.91;4919510;29;20111;-70
2022/07/11 01:40:17;;;;;;;0.52;0.10;;;;;;;26.84;41.38;100774.91;4932425;29;20179;-70
2022/07/11 01:42:43;;;;;;;1.30;0.10;;;;;;;26.84;40.80;100769.56;4914544;29;20447;-70
2022/07/11 01:45:10;;;;;;;0.30;0.10;;;;;;;26.83;41.36;100776.78;4916341;29;20396;-70
2022/07/11 01:47:36;;;;;;;0.28;0.17;;;;;;;26.83;41.22;100779.47;4910916;29;20035;-70
2022/07/11 01:50:02;;;;;;;0.40;0.17;;;;;;;26.83;41.24;100778.66;4910351;29;20032;-69
2022/07/11 01:52:28;;;;;;;0.20;0.10;;;;;;;26.81;41.37;100780.75;4911210;29;20035;-69
2022/07/11 01:54:53;;;;;;;0.30;0.20;;;;;;;26.81;41.18;100783.44;4912187;29;20032;-69
2022/07/11 01:57:19;;;;;;;0.35;0.10;;;;;;;26.80;41.24;100784.47;4912037;29;20035;-69
2022/07/11 01:59:44;;;;;;;0.40;0.10;;;;;;;26.78;41.35;100774.84;4912277;29;20467;-69
2022/07/11 02:02:10;;;;;;;0.80;0.10;;;;;;;26.78;41.18;100772.16;4913637;29;20028;-69
2022/07/11 02:04:35;;;;;;;0.95;0.10;;;;;;;26.78;41.41;100776.69;4912211;29;20032;-69
2022/07/11 02:07:01;;;;;;;1.00;0.15;;;;;;;26.77;41.35;100773.22;4912494;29;20476;-69
2022/07/11 02:09:26;;;;;;;0.30;0.10;;;;;;;26.77;41.48;100775.91;4914453;29;20034;-69
2022/07/11 02:11:52;;;;;;;0.47;0.10;;;;;;;26.77;41.11;100783.09;4912839;29;20048;-69
2022/07/11 02:14:17;;;;;;;0.47;0.15;;;;;;;26.77;41.07;100775.91;4912148;29;20039;-70
2022/07/11 02:16:43;;;;;;;0.30;0.10;;;;;;;26.78;41.04;100771.34;4913066;29;20414;-70
2022/07/11 02:19:10;;;;;;;0.28;0.10;;;;;;;26.78;41.12;100766.81;4910963;29;20383;-69
2022/07/11 02:21:36;;;;;;;0.22;0.10;;;;;;;26.78;41.18;100777.50;4911133;29;20036;-69
2022/07/11 02:24:01;;;;;;;0.30;0.17;;;;;;;26.78;41.18;100777.50;4914600;29;20043;-69
2022/07/11 02:26:26;;;;;;;0.20;0.10;;;;;;;26.78;41.08;100782.84;4911706;29;20514;-69
2022/07/11 02:28:52;;;;;;;0.57;0.17;;;;;;;26.80;40.84;100784.47;4911769;29;20035;-69
2022/07/11 02:31:18;;;;;;;0.22;0.10;;;;;;;26.80;41.04;100782.63;4911357;29;20079;-69
2022/07/11 02:33:43;;;;;;;0.40;0.10;;;;;;;26.82;40.83;100785.06;4913294;29;20103;-69
2022/07/11 02:36:10;;;;;;;0.20;0.10;;;;;;;26.81;41.17;100775.41;4912736;29;20040;-69
2022/07/11 02:38:36;;;;;;;1.42;0.10;;;;;;;26.80;40.95;100777.28;4911930;29;20571;-70
2022/07/11 02:41:01;;;;;;;0.45;0.20;;;;;;;26.81;41.26;100776.22;4913430;29;20160;-70
2022/07/11 02:43:27;;;;;;;0.65;0.20;;;;;;;26.81;41.10;100776.22;4911605;29;20034;-70
2022/07/11 02:45:54;;;;;;;0.65;0.10;;;;;;;26.81;40.99;100775.41;4915214;29;20032;-70
2022/07/11 02:48:20;;;;;;;0.60;0.10;;;;;;;26.81;41.22;100781.56;4911486;29;20024;-70
2022/07/11 02:50:45;;;;;;;0.40;0.20;;;;;;;26.81;41.17;100772.75;4911611;29;20043;-70
2022/07/11 02:53:11;;;;;;;0.30;0.10;;;;;;;26.81;41.10;100780.75;4912460;29;20103;-69
2022/07/11 02:55:36;;;;;;;0.45;0.10;;;;;;;26.81;41.06;100783.44;4910602;29;20100;-71
2022/07/11 02:58:02;;;;;;;0.40;0.10;;;;;;;26.81;40.90;100786.09;4912179;29;20123;-69
2022/07/11 03:00:27;;;;;;;0.35;0.10;;;;;;;26.80;41.03;100787.16;4911340;29;20044;-69
2022/07/11 03:02:53;;;;;;;0.40;0.10;;;;;;;26.78;41.32;100788.22;4911377;29;20366;-70
2022/07/11 03:05:18;;;;;;;0.22;0.10;;;;;;;26.78;41.03;100779.38;4911230;29;20069;-69
2022/07/11 03:07:44;;;;;;;0.30;0.15;;;;;;;26.76;41.07;100784.97;4911028;29;20051;-70
2022/07/11 03:10:10;;;;;;;0.40;0.10;;;;;;;26.77;41.45;100781.25;4914264;29;20591;-69
2022/07/11 03:12:36;;;;;;;1.85;0.20;;;;;;;26.78;40.98;100788.22;4910021;29;20088;-69
2022/07/11 03:15:03;;;;;;;0.20;0.10;;;;;;;26.78;41.00;100780.19;4912376;29;20036;-69
2022/07/11 03:17:29;;;;;;;0.98;0.10;;;;;;;26.78;40.74;100788.22;4913716;29;20044;-70
2022/07/11 03:19:54;;;;;;;0.70;0.10;;;;;;;26.77;41.15;100789.25;4910991;29;20070;-69
2022/07/11 03:22:21;;;;;;;0.28;0.08;;;;;;;26.78;41.18;100790.88;4910080;29;20063;-69
2022/07/11 03:24:46;;;;;;;0.98;0.10;;;;;;;26.79;40.95;100791.69;4911908;29;20047;-69
2022/07/11 03:27:11;;;;;;;0.40;0.20;;;;;;;26.77;41.04;100791.94;4910914;29;20047;-69
2022/07/11 03:29:37;;;;;;;1.17;0.10;;;;;;;26.77;41.06;100786.59;4911162;29;20036;-70
2022/07/11 03:32:02;;;;;;;0.50;0.20;;;;;;;26.75;41.14;100783.34;4911116;29;20039;-70
2022/07/11 03:34:28;;;;;;;7.20;0.15;;;;;;;26.76;40.86;100787.63;4911028;29;20036;-69
2022/07/11 03:36:54;;;;;;;1.40;0.20;;;;;;;26.74;40.84;100792.41;4914256;29;20426;-69
2022/07/11 03:39:21;;;;;;;0.73;0.10;;;;;;;26.74;40.74;100789.75;4913833;29;20040;-69
2022/07/11 03:41:46;;;;;;;0.65;0.20;;;;;;;26.75;40.86;100799.38;4911739;29;20052;-69
2022/07/11 03:44:12;;;;;;;0.30;0.10;;;;;;;26.75;40.84;100787.88;4912961;29;20036;-69
2022/07/11 03:46:37;;;;;;;0.32;0.10;;;;;;;26.76;40.66;100792.16;4912977;29;20036;-69
2022/07/11 03:49:03;;;;;;;4.40;0.20;;;;;;;26.75;40.71;100788.69;4912199;29;20421;-70
2022/07/11 03:51:28;;;;;;;1.17;0.10;;;;;;;26.76;40.90;100792.16;4910751;29;20055;-69
2022/07/11 03:53:54;;;;;;;0.20;0.10;;;;;;;26.76;40.85;100795.66;4909680;29;20500;-70
2022/07/11 03:56:22;;;;;;;0.20;0.10;;;;;;;26.75;40.90;100791.38;4911984;29;20032;-69
2022/07/11 03:58:49;;;;;;;0.20;0.10;;;;;;;26.76;40.88;100798.31;4910757;29;20449;-70
2022/07/11 04:01:15;;;;;;;0.25;0.10;;;;;;;26.76;40.67;100792.97;4911016;29;20042;-69
2022/07/11 04:03:40;;;;;;;0.40;0.10;;;;;;;26.77;40.69;100802.63;4911451;29;20770;-69
2022/07/11 04:06:06;;;;;;;0.82;0.10;;;;;;;26.76;40.65;100801.00;4909611;29;20112;-69
2022/07/11 04:08:31;;;;;;;0.25;0.10;;;;;;;26.76;40.77;100800.19;4911583;29;20074;-69
2022/07/11 04:10:57;;;;;;;0.30;0.13;;;;;;;26.76;40.77;100794.84;4918557;29;20056;-69
2022/07/11 04:13:22;;;;;;;0.25;0.10;;;;;;;26.76;40.66;100811.69;4911347;29;20084;-69
2022/07/11 04:15:47;;;;;;;0.10;0.10;;;;;;;26.76;40.43;100814.38;4911408;29;20028;-69
2022/07/11 04:18:13;;;;;;;0.40;0.10;;;;;;;26.76;40.51;100801.00;4911427;29;20046;-69
2022/07/11 04:20:39;;;;;;;0.82;0.10;;;;;;;26.75;40.53;100818.09;4911427;29;20044;-69
2022/07/11 04:23:05;;;;;;;0.32;0.10;;;;;;;26.76;40.30;100819.72;4911412;29;20036;-69
2022/07/11 04:25:30;;;;;;;1.38;0.10;;;;;;;26.76;40.45;100814.38;4910736;29;20036;-70
2022/07/11 04:27:55;;;;;;;0.30;0.10;;;;;;;26.75;40.43;100814.59;4913799;29;20066;-70
2022/07/11 04:30:21;;;;;;;0.70;0.13;;;;;;;26.75;40.22;100815.41;4913054;29;20036;-71
2022/07/11 04:32:46;;;;;;;0.20;0.10;;;;;;;26.75;40.39;100817.28;4915771;29;20020;-70
2022/07/11 04:35:12;;;;;;;1.27;0.10;;;;;;;26.73;40.58;100816.72;4913111;29;20465;-70
2022/07/11 04:37:37;;;;;;;0.47;0.10;;;;;;;26.72;40.32;100823.91;4913374;29;20532;-69
2022/07/11 04:40:03;;;;;;;0.30;0.10;;;;;;;26.71;40.25;100829.50;4915129;29;20027;-69
2022/07/11 04:42:28;;;;;;;0.45;0.10;;;;;;;26.72;40.36;100829.25;4913265;29;20047;-70
2022/07/11 04:44:54;;;;;;;0.25;0.10;;;;;;;26.70;40.34;100828.69;4916498;29;20042;-69
2022/07/11 04:47:19;;;;;;;0.98;0.10;;;;;;;26.70;40.49;100819.88;4912575;29;20087;-69
2022/07/11 04:49:46;;;;;;;0.73;0.10;;;;;;;26.69;40.37;100824.41;4913506;29;20032;-69
2022/07/11 04:52:13;;;;;;;0.30;0.15;;;;;;;26.69;40.31;100827.06;4913837;29;20119;-69
2022/07/11 04:54:38;;;;;;;0.60;0.10;;;;;;;26.70;40.42;100827.88;4911464;29;20047;-69
2022/07/11 04:57:04;;;;;;;0.88;0.10;;;;;;;26.71;40.32;100826.84;4913619;29;20028;-70
2022/07/11 04:59:30;;;;;;;0.40;0.10;;;;;;;26.70;40.42;100823.34;4913250;29;20040;-69
2022/07/11 05:01:55;;;;;;;0.40;0.10;;;;;;;26.72;40.17;100826.59;4913209;29;20304;-69
2022/07/11 05:04:20;;;;;;;0.50;0.10;;;;;;;26.71;40.22;100824.97;4913893;29;20031;-69
2022/07/11 05:06:46;;;;;;;1.10;0.20;;;;;;;26.72;40.06;100825.78;4913030;29;20374;-69
2022/07/11 05:09:11;;;;;;;0.28;0.10;;;;;;;26.73;40.20;100827.41;4915261;29;20500;-69
2022/07/11 05:11:37;;;;;;;0.95;0.10;;;;;;;26.74;40.37;100821.81;4913559;29;20513;-69
2022/07/11 05:14:02;;;;;;;0.22;0.10;;;;;;;26.75;40.31;100826.09;4915408;29;20051;-69
2022/07/11 05:16:27;;;;;;;0.30;0.10;;;;;;;26.76;39.99;100822.38;4912763;29;20076;-69
2022/07/11 05:18:53;;;;;;;1.42;0.10;;;;;;;26.76;40.04;100822.38;4912536;29;20039;-69
2022/07/11 05:21:22;;;;;;;0.30;0.10;;;;;;;26.77;39.86;100825.88;4912687;29;20036;-70
2022/07/11 05:23:48;;;;;;;0.50;0.13;;;;;;;26.75;40.26;100819.94;4914189;29;20087;-69
2022/07/11 05:26:14;;;;;;;0.40;0.10;;;;;;;26.74;40.12;100824.50;4915194;29;20068;-69
2022/07/11 05:28:40;;;;;;;0.50;0.10;;;;;;;26.73;40.11;100825.53;4913574;29;20028;-70
2022/07/11 05:31:05;;;;;;;0.60;0.15;;;;;;;26.72;39.88;100829.25;4912617;29;20047;-70
2022/07/11 05:33:31;;;;;;;0.57;0.10;;;;;;;26.72;39.82;100834.63;4914963;29;20087;-69
2022/07/11 05:35:56;;;;;;;0.98;0.10;;;;;;;26.72;39.90;100841.81;4912174;29;20032;-70
2022/07/11 05:38:22;;;;;;;0.68;0.10;;;;;;;26.70;39.76;100847.41;4915728;29;20032;-69
2022/07/11 05:40:48;;;;;;;1.50;0.10;;;;;;;26.70;39.88;100850.06;4914320;29;20040;-69
2022/07/11 05:43:13;;;;;;;1.10;0.13;;;;;;;26.71;39.70;100842.88;4914927;29;20028;-69
2022/07/11 05:45:39;;;;;;;0.25;0.10;;;;;;;26.69;39.64;100844.97;4916296;29;20039;-69
2022/07/11 05:48:05;;;;;;;0.80;0.10;;;;;;;26.69;39.66;100842.31;4912215;29;20416;-70
2022/07/11 05:50:30;;;;;;;1.10;0.10;;;;;;;26.68;39.60;100846.84;4912093;29;20043;-69
2022/07/11 05:52:57;;;;;;;0.43;0.10;;;;;;;26.67;39.83;100845.22;4913183;29;20039;-71
2022/07/11 05:55:23;;;;;;;0.28;0.10;;;;;;;26.67;39.57;100839.88;4912095;29;20119;-70
2022/07/11 05:57:48;;;;;;;0.20;0.20;;;;;;;26.66;39.64;100851.59;4914457;29;20064;-71
2022/07/11 06:00:14;;;;;;;0.35;0.10;;;;;;;26.66;39.53;100854.28;4912179;29;20027;-70
2022/07/11 06:02:40;;;;;;;1.85;0.10;;;;;;;26.67;39.65;100855.09;4913347;29;20091;-70
2022/07/11 06:05:05;;;;;;;0.85;0.10;;;;;;;26.66;39.65;100848.94;4912674;29;20783;-71
2022/07/11 06:10:15;;;;;;;0.70;0.13;;;;;;;26.66;39.43;100854.28;4919389;29;20130;-70
2022/07/11 06:12:41;;;;;;;0.50;0.05;;;;;;;26.68;39.24;100849.50;4911433;29;20139;-70
2022/07/11 06:15:07;;;;;;;0.30;0.05;;;;;;;26.69;39.50;100853.81;4912155;29;20481;-70
2022/07/11 06:17:33;;;;;;;0.50;0.10;;;;;;;26.70;39.42;100849.25;4911411;29;20040;-71
2022/07/11 06:19:58;;;;;;;1.10;0.10;;;;;;;26.71;39.14;100845.53;4911064;29;20518;-71
2022/07/11 06:22:24;;;;;;;1.02;0.10;;;;;;;26.70;38.86;100850.06;4911911;29;20028;-70
2022/07/11 06:24:49;;;;;;;0.40;0.10;;;;;;;26.71;39.00;100849.03;4913182;29;20024;-71
2022/07/11 06:27:14;;;;;;;0.45;0.10;;;;;;;26.71;38.93;100849.03;4911478;29;20491;-70
2022/07/11 06:29:40;;;;;;;0.63;0.10;;;;;;;26.70;38.85;100844.72;4912896;29;20036;-70
2022/07/11 06:32:06;;;;;;;0.20;0.10;;;;;;;26.71;38.73;100849.03;4910951;29;20099;-71
2022/07/11 06:34:31;;;;;;;0.50;0.10;;;;;;;26.70;38.86;100850.06;4912272;29;20032;-71
2022/07/11 06:36:57;;;;;;;0.98;0.20;;;;;;;26.69;38.65;100851.13;4914226;29;20044;-71
2022/07/11 06:39:22;;;;;;;0.30;0.10;;;;;;;26.70;38.68;100843.91;4912488;29;20028;-71
2022/07/11 06:41:49;;;;;;;0.73;0.10;;;;;;;26.69;38.74;100850.31;4913756;29;20050;-71
2022/07/11 06:44:14;;;;;;;0.20;0.10;;;;;;;26.67;38.73;100855.91;4915018;29;20027;-71
2022/07/11 06:46:39;;;;;;;0.35;0.10;;;;;;;26.68;38.47;100862.88;4912553;29;20044;-70
2022/07/11 06:49:05;;;;;;;0.22;0.10;;;;;;;26.66;38.62;100848.94;4912682;29;20039;-71
2022/07/11 06:51:30;;;;;;;0.20;0.10;;;;;;;26.66;38.59;100856.97;4910479;29;20024;-72
2022/07/11 06:53:56;;;;;;;0.30;0.10;;;;;;;26.66;38.37;100848.94;4911477;29;20503;-71
2022/07/11 06:56:21;;;;;;;0.75;0.10;;;;;;;26.65;38.55;100852.66;4911820;29;20256;-70
2022/07/11 06:58:47;;;;;;;1.23;0.10;;;;;;;26.66;38.91;100861.50;4911685;29;20122;-71
2022/07/11 07:01:12;;;;;;;1.92;0.20;;;;;;;26.70;39.24;100855.41;4910856;29;20024;-71
2022/07/11 07:03:38;;;;;;;0.60;0.10;;;;;;;26.76;39.16;100854.47;4910811;29;20031;-70
2022/07/11 07:06:03;;;;;;;2.58;0.20;;;;;;;26.78;39.10;100851.53;4909638;29;20067;-70
2022/07/11 07:08:30;;;;;;;1.80;0.10;;;;;;;26.76;38.50;100854.47;4913320;29;20040;-69
2022/07/11 07:10:56;;;;;;;1.90;0.20;;;;;;;26.72;38.93;100864.00;4909368;29;20568;-72
2022/07/11 07:13:25;;;;;;;5.05;0.30;;;;;;;26.72;39.41;100858.66;4917492;29;20074;-71
2022/07/11 07:15:51;;;;;;;1.70;0.10;;;;;;;26.74;39.59;100858.41;4905545;29;20548;-71
2022/07/11 07:18:16;;;;;;;4.00;0.20;;;;;;;26.75;39.54;100862.72;4905819;29;20028;-71
2022/07/11 07:20:42;;;;;;;2.35;0.20;;;;;;;26.75;39.65;100860.03;4910238;29;20111;-71
2022/07/11 07:23:07;;;;;;;2.45;0.20;;;;;;;26.74;39.63;100866.44;4915345;29;20501;-70
2022/07/11 07:25:33;;;;;;;0.52;0.08;;;;;;;26.73;39.06;100856.81;4910966;29;20111;-71
2022/07/11 07:27:59;;;;;;;1.40;0.20;;;;;;;26.64;37.92;100856.38;4913864;29;20523;-71
2022/07/11 07:30:25;;;;;;;1.38;0.20;;;;;;;26.52;37.82;100852.97;4911394;29;20209;-71
2022/07/11 07:32:50;;;;;;;0.80;0.10;;;;;;;26.44;37.47;100853.38;4913308;29;20043;-70
2022/07/11 07:35:15;;;;;;;3.45;0.20;;;;;;;26.39;37.40;100858.63;4920734;29;20038;-70
2022/07/11 07:37:41;;;;;;;0.85;0.10;;;;;;;26.40;37.44;100846.88;4917943;29;20052;-69
2022/07/11 07:40:07;;;;;;;3.65;0.17;;;;;;;26.41;37.44;100840.50;4911856;29;20039;-70
2022/07/11 07:42:32;;;;;;;15.75;0.52;;;;;;;26.43;37.39;100846.41;4910190;29;20059;-71
2022/07/11 07:44:57;;;;;;;10.55;0.30;;;;;;;26.41;37.41;100853.84;4909051;29;20078;-71
2022/07/11 07:47:23;;;;;;;3.75;0.20;;;;;;;26.39;37.48;100848.75;4912012;29;20111;-71
2022/07/11 07:49:48;;;;;;;0.60;0.10;;;;;;;26.37;37.59;100852.69;4911926;29;20028;-71
2022/07/11 07:52:14;;;;;;;0.52;0.10;;;;;;;26.37;37.60;100850.03;4920607;29;20024;-71
2022/07/11 07:54:40;;;;;;;1.70;0.30;;;;;;;26.36;37.79;100851.88;4930687;29;20110;-71
2022/07/11 07:57:05;;;;;;;0.40;0.10;;;;;;;26.36;37.15;100854.56;4931072;29;20036;-71
2022/07/11 07:59:31;;;;;;;0.60;0.10;;;;;;;26.33;36.92;100854.22;4930836;29;20024;-71
2022/07/11 08:01:56;;;;;;;1.85;0.17;;;;;;;26.33;36.95;100851.56;4931553;29;20028;-71
2022/07/11 08:04:21;;;;;;;0.20;0.10;;;;;;;26.33;37.09;100852.38;4934282;29;20583;-71
2022/07/11 08:06:47;;;;;;;3.03;0.47;;;;;;;26.33;37.39;100854.22;4934422;29;20378;-71
2022/07/11 08:09:13;;;;;;;0.65;0.10;;;;;;;26.35;37.75;100854.81;4933538;29;20031;-71
2022/07/11 08:11:38;;;;;;;1.63;0.20;;;;;;;26.36;37.96;100854.56;4933954;29;20051;-71
2022/07/11 08:14:04;;;;;;;2.60;0.10;;;;;;;26.35;37.67;100854.81;4934072;29;20059;-70
2022/07/11 08:16:31;;;;;;;0.65;0.10;;;;;;;26.32;37.92;100853.41;4916638;29;20054;-70
2022/07/11 08:19:02;;;;;;;2.28;0.30;;;;;;;26.27;38.10;100853.28;4914079;29;20036;-70
2022/07/11 08:21:28;;;;;;;0.70;0.13;;;;;;;26.26;38.06;100854.34;4912928;29;20095;-70
2022/07/11 08:23:54;;;;;;;0.50;0.20;;;;;;;26.26;38.07;100856.19;4913589;29;20031;-71
2022/07/11 08:26:20;;;;;;;1.92;0.10;;;;;;;26.25;38.29;100857.25;4914964;29;20039;-70
2022/07/11 08:28:45;;;;;;;1.00;0.10;;;;;;;26.22;38.16;100860.38;4912822;29;20040;-70
2022/07/11 08:31:10;;;;;;;0.30;0.10;;;;;;;26.18;37.86;100851.22;4914053;29;20043;-71
2022/07/11 08:33:37;;;;;;;0.88;0.10;;;;;;;26.16;37.62;100859.47;4913261;29;20036;-70
2022/07/11 08:36:03;;;;;;;0.98;0.20;;;;;;;26.16;37.61;100856.81;4912316;29;20397;-70
2022/07/11 08:38:28;;;;;;;0.98;0.10;;;;;;;26.16;37.31;100854.13;4913437;29;20040;-70
2022/07/11 08:40:53;;;;;;;1.38;0.10;;;;;;;26.16;37.61;100858.66;4914567;29;20492;-70
2022/07/11 08:43:27;;;;;;;1.25;0.10;;;;;;;26.16;37.68;100864.00;4913251;29;20031;-70
2022/07/11 08:45:54;;;;;;;3.00;0.30;;;;;;;26.17;37.90;100868.31;4913099;29;20536;-71
2022/07/11 08:48:21;;;;;;;0.77;0.10;;;;;;;26.17;37.80;100868.31;4913363;29;20130;-70
2022/07/11 08:50:46;;;;;;;1.23;0.20;;;;;;;26.18;37.74;100867.25;4913650;29;20032;-70
2022/07/11 08:53:13;;;;;;;1.10;0.10;;;;;;;26.16;37.41;100869.34;4914743;29;20048;-70
2022/07/11 08:55:39;;;;;;;0.40;0.10;;;;;;;26.15;37.54;100870.41;4914254;29;20032;-70
2022/07/11 08:58:07;;;;;;;2.20;0.10;;;;;;;26.13;37.39;100876.78;4913241;29;20139;-71
2022/07/11 09:00:32;;;;;;;0.40;0.13;;;;;;;26.12;37.61;100875.16;4914291;29;20060;-70
2022/07/11 09:03:00;;;;;;;0.70;0.10;;;;;;;26.10;37.51;100877.25;4912916;29;20043;-70
2022/07/11 09:05:27;;;;;;;0.35;0.15;;;;;;;26.11;37.55;100873.53;4912827;29;20052;-70
2022/07/11 09:07:52;;;;;;;1.08;0.10;;;;;;;26.11;37.49;100873.53;4914242;29;20076;-70
2022/07/11 09:10:18;;;;;;;2.35;0.10;;;;;;;26.11;37.58;100870.88;4914224;29;20032;-70
2022/07/11 09:13:04;;;;;;;0.90;0.10;;;;;;;26.10;37.61;100871.91;4913002;29;20099;-70
2022/07/11 09:15:40;;;;;;;0.75;0.10;;;;;;;26.10;37.68;100866.56;4910305;29;20123;-70
2022/07/11 09:18:28;;;;;;;0.80;0.10;;;;;;;26.08;37.69;100868.66;4912840;29;21010;-70
2022/07/11 09:26:30;;;;;;;0.52;0.10;;;;;;;26.08;37.56;100867.84;4913033;29;20184;-70
2022/07/11 09:29:14;;;;;;;2.58;0.10;;;;;;;26.06;37.64;100864.63;4913814;29;20503;-70
2022/07/11 09:31:42;;;;;;;0.82;0.10;;;;;;;26.07;37.72;100867.06;4913713;29;20511;-70
2022/07/11 09:34:10;;;;;;;4.38;0.20;;;;;;;26.07;37.75;100858.22;4912449;29;20513;-70
2022/07/11 09:36:40;;;;;;;1.95;0.22;;;;;;;26.07;37.45;100867.06;4913809;29;20032;-70
2022/07/11 09:39:08;;;;;;;0.57;0.10;;;;;;;26.09;37.78;100864.16;4913466;29;20042;-70
2022/07/11 09:41:34;;;;;;;1.20;0.10;;;;;;;26.10;37.87;100860.44;4913534;29;20028;-70
2022/07/11 09:44:12;;;;;;;1.92;0.10;;;;;;;26.09;37.88;100864.16;4912328;29;20032;-70
2022/07/11 09:46:38;;;;;;;0.35;0.08;;;;;;;26.11;37.96;100867.38;4913483;29;20032;-70
2022/07/11 09:49:04;;;;;;;2.63;0.20;;;;;;;26.12;37.86;100866.34;4912509;29;20039;-70
2022/07/11 09:51:34;;;;;;;2.63;0.10;;;;;;;26.13;37.85;100854.63;4912514;29;20040;-70
2022/07/11 09:54:01;;;;;;;1.48;0.10;;;;;;;26.11;37.62;100856.72;4913508;29;20160;-71
2022/07/11 09:56:43;;;;;;;2.47;0.10;;;;;;;26.04;37.50;100851.50;4913213;29;20106;-71
2022/07/11 09:59:10;;;;;;;1.15;0.20;;;;;;;26.05;37.74;100853.13;4913250;29;20111;-71
2022/07/11 10:01:37;;;;;;;0.75;0.13;;;;;;;26.10;37.90;100866.56;4912360;29;20059;-70
2022/07/11 10:04:06;;;;;;;1.08;0.17;;;;;;;26.13;37.87;100866.09;4911807;29;20449;-70
2022/07/11 10:06:31;;;;;;;0.82;0.25;;;;;;;26.14;37.95;100856.22;4913384;29;20036;-70
2022/07/11 10:08:57;;;;;;;0.60;0.10;;;;;;;26.17;37.95;100854.94;4913130;29;20043;-71
2022/07/11 10:11:22;;;;;;;2.30;0.10;;;;;;;26.18;38.15;100856.56;4913317;29;20052;-70
2022/07/11 10:13:49;;;;;;;1.85;0.10;;;;;;;26.20;38.14;100855.28;4911720;29;20044;-70
2022/07/11 10:16:23;;;;;;;0.30;0.10;;;;;;;26.18;38.21;100853.91;4912988;29;20020;-70
2022/07/11 10:19:31;;;;;;;0.50;0.10;;;;;;;26.13;38.34;100851.94;4911700;29;20048;-71
2022/07/11 10:22:11;;;;;;;1.90;0.13;;;;;;;26.15;38.22;100849.03;4894094;29;20040;-70
2022/07/11 10:24:44;;;;;;;0.70;0.10;;;;;;;26.10;38.36;100855.09;4893436;29;20068;-70
2022/07/11 10:27:29;;;;;;;0.50;0.10;;;;;;;26.09;38.14;100842.78;4893959;29;20044;-70
2022/07/11 10:29:54;;;;;;;0.50;0.10;;;;;;;26.12;38.09;100848.47;4899279;29;20032;-70
2022/07/11 10:32:20;;;;;;;1.30;0.10;;;;;;;26.13;38.10;100838.59;4912909;29;20039;-69
2022/07/11 10:35:04;;;;;;;0.38;0.10;;;;;;;26.14;38.23;100850.91;4911562;29;20115;-69
2022/07/11 10:37:30;;;;;;;0.47;0.10;;;;;;;26.15;38.20;100841.03;4911351;29;20428;-70
2022/07/11 10:39:58;;;;;;;1.10;0.20;;;;;;;26.18;38.25;100845.88;4912559;29;20032;-70
2022/07/11 10:42:37;;;;;;;1.20;0.20;;;;;;;26.19;37.89;100845.66;4912829;29;20039;-70
2022/07/11 10:45:07;;;;;;;0.30;0.10;;;;;;;26.23;38.20;100836.13;4911219;29;20160;-70
2022/07/11 10:47:43;;;;;;;0.40;0.35;;;;;;;26.24;37.89;100835.06;4907640;29;20067;-70
2022/07/11 10:50:21;;;;;;;0.40;0.10;;;;;;;26.24;38.06;100834.25;4921414;29;20036;-69
2022/07/11 10:52:48;;;;;;;1.10;0.10;;;;;;;26.27;38.16;100839.13;4911243;29;20028;-70
2022/07/11 10:55:47;;;;;;;0.98;0.13;;;;;;;26.26;38.12;100840.16;4912577;29;20106;-69
2022/07/11 10:58:32;;;;;;;0.98;0.20;;;;;;;26.27;37.79;100842.59;4909990;29;20038;-70
2022/07/11 11:01:16;;;;;;;1.77;0.15;;;;;;;26.28;37.74;100838.06;4912164;29;20038;-70
2022/07/11 11:03:43;;;;;;;0.73;0.20;;;;;;;26.30;37.80;100825.28;4912225;29;20040;-70
2022/07/11 11:06:09;;;;;;;1.02;0.28;;;;;;;26.32;37.68;100831.25;4909020;29;20036;-70
2022/07/11 11:08:38;;;;;;;1.88;0.10;;;;;;;26.32;37.90;100823.22;4911487;29;20400;-70
2022/07/11 11:11:06;;;;;;;1.50;0.20;;;;;;;26.33;38.34;100812.31;4911906;29;20052;-70
2022/07/11 11:13:35;;;;;;;1.48;0.30;;;;;;;26.33;38.38;100823.00;4909612;29;20555;-70
2022/07/11 11:16:02;;;;;;;0.60;0.10;;;;;;;26.33;38.31;100811.50;4912265;29;20035;-70
2022/07/11 11:18:34;;;;;;;1.17;0.13;;;;;;;26.33;38.08;100811.50;4910868;29;20077;-70
2022/07/11 11:21:02;;;;;;;1.48;0.20;;;;;;;26.33;38.00;100814.16;4910903;29;20517;-70
2022/07/11 11:23:29;;;;;;;1.45;0.10;;;;;;;26.32;37.86;100807.19;4911897;29;20033;-70
2022/07/11 11:25:55;;;;;;;0.70;0.10;;;;;;;26.33;38.01;100816.84;4910763;29;20043;-70
2022/07/11 11:28:22;;;;;;;0.82;0.20;;;;;;;26.32;37.54;100815.22;4912029;29;20378;-69
2022/07/11 11:30:54;;;;;;;0.70;0.10;;;;;;;26.23;37.18;100808.59;4910908;29;20513;-70
2022/07/11 11:33:20;;;;;;;0.30;0.13;;;;;;;26.18;37.19;100803.16;4917252;29;20178;-70